Tiempo atmosférico en la estación meteorológica de Quintana del Castillo, Villameca, León (995 m.)



Fecha
DESCASC
Temp. máxima en grados centígrados (hora)
DESCASC
Temp. mínima en grados centígrados (hora)
DESCASC
Temp. media en grados centígrados
DESCASC
Racha de viento máxima en m/sg (hora)
DESCASC
Velocidad máxima media en intervalos de 10 minutos(hora)
DESCASC
Precipitaciones diarias en mm
DESCASC
Precipitaciones de 00:00 a 06:00 en mm
DESCASC
Precipitaciones de 06:00 a 12:00 en mm
DESCASC
Precipitaciones de 12:00 a 18:00 en mm
DESCASC
Precipitaciones de 18:00 a 24:00 en mm
DESCASC
05-04-2020 10.5 (16:20) 8.1 (09:10) 9.3 8.06 (09:50) 4.17 (16:20) 1.6 0 0 0.8 0.8
04-04-2020 15.9 (16:40) 0.8 (07:10) 8.3 9.72 (15:10) 4.72 (15:00) 0 0 0 0 0
03-04-2020 13.8 (18:20) 0.9 (04:10) 7.4 6.11 (17:30) 3.06 (23:40) 0 0 0 0 0
02-04-2020 11.3 (15:00) 3.8 (00:00) 7.6 11.94 (17:50) 8.33 (18:10) 3.4 3.4 0 0 0
01-04-2020 12.7 (15:00) 3.4 (00:00) 8 8.61 (01:00) 5.56 (17:30) 10.4 6.8 0.2 0 3.4
31-03-2020 10 (14:40) -3.3 (-00:0) 3.4 11.11 (14:40) 7.22 (00:30) 1.4 0 0 0 1.4
30-03-2020 6.2 (00:00) -0.6 (-00:0) 2.8 15.83 (18:20) 11.39 (18:20) 0 0 0 0 0
29-03-2020 17.3 (16:50) 1.5 (00:00) 9.4 10.28 (20:00) 8.06 (19:40) 0 0 0 0 0
28-03-2020 15.7 (16:50) 0.4 (00:00) 8 6.11 (17:00) 4.44 (23:30) 0 0 0 0 0
27-03-2020 11.1 (16:50) -2.3 (-00:0) 4.4 10.28 (14:40) 6.39 (10:40) 0 0 0 0 0
26-03-2020 16.4 (15:20) 1 (00:00) 8.7 10 (17:10) 7.5 (21:00) 0 0 0 0 0
25-03-2020 17 (15:10) 3.3 (00:00) 10.1 11.11 (17:10) 7.78 (19:10) 0 0 0 0 0
24-03-2020 16.6 (16:10) 5.7 (00:00) 11.2 7.5 (09:20) 4.72 (09:20) 0 0 0 0 0
23-03-2020 15.3 (14:50) 2.4 (00:00) 8.9 8.33 (16:50) 3.61 (01:40) 0 0 0 0 0
22-03-2020 17.2 (15:30) 3.4 (08:00) 10.3 8.61 (16:30) 4.44 (21:20) 0 0 0 0 0
21-03-2020 14.4 (16:40) 6.6 (00:00) 10.5 7.22 (05:40) 4.72 (10:00) 0 0 0 0 0
20-03-2020 11.9 (15:50) 6.3 (00:00) 9.1 7.78 (15:50) 3.33 (08:40) 1.6 0 0.2 1.4 0
19-03-2020 18.3 (14:20) 5.6 (00:00) 11.9 7.22 (16:40) 3.61 (02:50) 0 0 0 0 0
18-03-2020 18.5 (16:10) 6 (00:00) 12.3 5.28 (17:20) 3.61 (23:30) 0 0 0 0 0
17-03-2020 15.2 (13:10) 4.4 (00:00) 9.8 10.56 (13:00) 5.83 (12:10) 0 0 0 0 0
16-03-2020 8.4 (13:30) 0.7 (00:00) 4.5 21.11 (15:50) 14.72 (15:20) 0.2 0.2 0 0 0
15-03-2020 13.6 (13:00) 0.9 (00:00) 7.3 17.22 (18:00) 11.67 (18:00) 1 0 0 0 1
14-03-2020 17.2 (17:20) 1.8 (00:00) 9.5 6.67 (12:50) 4.17 (23:10) 0 0 0 0 0
13-03-2020 15.7 (15:10) 4 (23:59) 9.8 10 (16:00) 5.56 (18:00) 0 0 0 0 0
12-03-2020 19.5 (16:10) 7 (00:00) 13.3 8.89 (16:30) 6.39 (16:30) 0 0 0 0 0
11-03-2020 21.1 (16:30) 5.6 (00:00) 13.4 7.78 (21:50) 5.83 (21:50) 0 0 0 0 0
10-03-2020 19.3 (16:30) 6.5 (00:00) 12.9 13.89 (15:30) 8.61 (15:50) 0 0 0 0 0
09-03-2020 12.9 (16:30) 1.3 (00:00) 7.1 12.5 (16:50) 7.78 (14:30) 0 0 0 0 0

Gráficas

Temp. máximas Temp. mínimas Temp. medias Precipitaciones Rachas de viento máximas Velocidades máximas media en intervalos de 10 minutos

Datos horarios

Fecha y hora oficial Temperatura (ºC) Velocidad del viento (km/h) Dirección del viento Racha (km/h) Dirección de racha Precipitación (mm) Presión (hPa) Tendencia (hPa) Humedad (%)
2020-04-07 23:00:00 7.9 10 Norte 13 Norte 0 -- -- 97
2020-04-07 22:00:00 8.8 6 Norte 10 Norte 0 -- -- 94
2020-04-07 21:00:00 10.2 5 Nordeste 13 Norte 0 -- -- 92
2020-04-07 20:00:00 11.5 9 Norte 21 Noroeste 0.2 -- -- 88
2020-04-07 19:00:00 14.5 0 Calma 9 Sudeste 0 -- -- 77
2020-04-07 18:00:00 13.8 5 Nordeste 7 Nordeste 0 -- -- 78
2020-04-07 17:00:00 12.3 4 Nordeste 9 Este 0.8 -- -- 87
2020-04-07 16:00:00 13.7 3 Sur 18 Sur 0 -- -- 82
2020-04-07 15:00:00 13.4 5 Sudoeste 14 Sudoeste 0 -- -- 85
2020-04-07 14:00:00 12.9 5 Sur 12 Sur 0.2 -- -- 84
2020-04-07 13:00:00 11.2 5 Sudeste 15 Sur 0.2 -- -- 90
2020-04-07 12:00:00 10.6 5 Sudeste 12 Sudeste 0 -- -- 92
2020-04-07 11:00:00 9.4 5 Sudeste 13 Sudeste 0.2 -- -- 98
2020-04-07 10:00:00 9 10 Este 14 Este 0 -- -- 100
2020-04-07 09:00:00 8.3 6 Este 9 Sudeste 0 -- -- 100
2020-04-07 08:00:00 7.7 3 Este 8 Nordeste 0.4 -- -- 100
2020-04-07 07:00:00 7.7 5 Sudeste 8 Este 0.2 -- -- 99
2020-04-07 06:00:00 7.8 5 Este 10 Este 0 -- -- 99
2020-04-07 05:00:00 8 5 Este 7 Este 0 -- -- 97
2020-04-07 04:00:00 8 3 Sudeste 7 Sudeste 0 -- -- 96
2020-04-07 03:00:00 7.9 4 Sudeste 18 Sudeste 0 -- -- 96
2020-04-07 02:00:00 8 6 Sudeste 10 Sudeste 0 -- -- 96
2020-04-07 01:00:00 8.1 6 Sudeste 14 Este 0 -- -- 96
2020-04-07 00:00:00 8.2 3 Sudeste 6 Este 0 -- -- 95
2020-04-06 23:00:00 8.5 5 Nordeste 7 Este 0 -- -- 95
2020-04-06 22:00:00 9 6 Sudeste 8 Sudeste 0 -- -- 92
2020-04-06 21:00:00 9.9 0 Calma 5 Sur 0 -- -- 86
2020-04-06 20:00:00 10.6 2 Sur 6 Oeste 0 -- -- 83
2020-04-06 19:00:00 10.7 4 Norte 6 Norte 0 -- -- 79
2020-04-06 18:00:00 10.3 6 Nordeste 10 Nordeste 0.2 -- -- 83
2020-04-06 17:00:00 10.4 5 Este 15 Sudoeste 0.8 -- -- 81
2020-04-06 16:00:00 11.2 13 Sudoeste 24 Sudoeste 0.6 -- -- 78
2020-04-06 15:00:00 13.2 10 Noroeste 26 Oeste 0 -- -- 66
2020-04-06 14:00:00 12.7 19 Oeste 27 Oeste 0 -- -- 70
2020-04-06 13:00:00 12.8 16 Noroeste 31 Oeste 0 -- -- 75
2020-04-06 12:00:00 10.7 17 Noroeste 31 Noroeste 0 -- -- 83
2020-04-06 11:00:00 9.4 17 Noroeste 37 Noroeste 0 -- -- 90
2020-04-06 10:00:00 8.7 18 Noroeste 31 Noroeste 0 -- -- 98
2020-04-06 09:00:00 8.9 12 Oeste 26 Noroeste 0.4 -- -- 100
2020-04-06 08:00:00 9.2 0 Calma 5 Sudoeste 0.4 -- -- 100
2020-04-06 07:00:00 9.1 2 Sudeste 4 Este 0 -- -- 99
2020-04-06 06:00:00 9.2 2 Sudeste 7 Sur 0 -- -- 99
2020-04-06 05:00:00 9.2 3 Sur 8 Sur 0.2 -- -- 99
2020-04-06 04:00:00 9.2 2 Sur 6 Sur 0 -- -- 99
2020-04-06 03:00:00 9.1 3 Sur 9 Sudeste 0 -- -- 98
2020-04-06 02:00:00 9.2 3 Sudeste 10 Sudeste 0 -- -- 98
2020-04-06 01:00:00 9.1 4 Sudeste 10 Sur 0.2 -- -- 98
2020-04-06 00:00:00 8.9 3 Sur 10 Sur 0 -- -- 98
2020-04-05 23:00:00 8.9 6 Sudeste 12 Sudeste 0 -- -- 97
2020-04-05 22:00:00 8.7 8 Sudeste 16 Sudeste 0 -- -- 97
2020-04-05 21:00:00 9 4 Sur 21 Sur 0 -- -- 94
2020-04-05 20:00:00 9.6 9 Sudoeste 22 Sudoeste 0.2 -- -- 95
2020-04-05 19:00:00 9.8 12 Sudoeste 27 Sudoeste 0.6 -- -- 96
2020-04-05 18:00:00 10 6 Sudoeste 24 Sudoeste 0.4 -- -- 94
2020-04-05 17:00:00 10 11 Sudoeste 28 Sudoeste 0 -- -- 90
2020-04-05 16:00:00 9.9 13 Sudoeste 27 Sudoeste 0.2 -- -- 90
2020-04-05 15:00:00 9.8 10 Sudoeste 25 Sudoeste 0 -- -- 91
2020-04-05 14:00:00 9.1 6 Sur 16 Sur 0.2 -- -- 90
2020-04-05 13:00:00 9 4 Sur 13 Sur 0 -- -- 90
2020-04-05 12:00:00 8.4 5 Sur 18 Sur 0 -- -- 90
2020-04-05 11:00:00 8.1 6 Sudeste 27 Sudoeste 0 -- -- 88
2020-04-05 10:00:00 8.2 10 Sudoeste 29 Sur 0 -- -- 87
2020-04-05 09:00:00 8.2 5 Sur 20 Sudeste 0 -- -- 85
2020-04-05 08:00:00 8.4 8 Sur 24 Sur 0 -- -- 83
2020-04-05 07:00:00 8.7 9 Sur 26 Sudoeste 0 -- -- 80
2020-04-05 06:00:00 8.7 9 Sur 18 Sur 0 -- -- 78
2020-04-05 05:00:00 9.1 9 Sur 26 Sur 0 -- -- 74
2020-04-05 04:00:00 9 9 Este 13 Sudeste 0 -- -- 75
2020-04-05 03:00:00 9.2 5 Sudeste 17 Este 0 -- -- 71
2020-04-05 02:00:00 9.5 7 Este 11 Este 0 -- -- 72
2020-04-05 01:00:00 9.5 4 Sudeste 10 Sudeste 0 -- -- 69
2020-04-05 00:00:00 10.1 4 Sudeste 13 Sudoeste 0 -- -- 66
2020-04-04 23:00:00 10.1 6 Sudoeste 15 Sur 0 -- -- 68
2020-04-04 22:00:00 11.1 6 Sudoeste 19 Sur 0 -- -- 62
2020-04-04 21:00:00 12.1 8 Sur 20 Sur 0 -- -- 58
2020-04-04 20:00:00 13.1 7 Sur 17 Sur 0 -- -- 54
2020-04-04 19:00:00 14.1 12 Sudoeste 24 Sudoeste 0 -- -- 48
2020-04-04 18:00:00 14.8 10 Sudoeste 33 Sudoeste 0 -- -- 48
2020-04-04 17:00:00 15.1 10 Sur 32 Sur 0 -- -- 50
2020-04-04 16:00:00 15.5 11 Sudoeste 35 Sur 0 -- -- 49
2020-04-04 15:00:00 14.2 17 Sur 33 Sudeste 0 -- -- 47
2020-04-04 14:00:00 13.3 16 Sur 30 Sudeste 0 -- -- 55
2020-04-04 13:00:00 12.5 13 Sur 28 Sur 0 -- -- 58
2020-04-04 12:00:00 11.3 12 Sur 24 Sur 0 -- -- 61
2020-04-04 11:00:00 10 7 Sudeste 16 Sudeste 0 -- -- 65
2020-04-04 10:00:00 6.5 0 Calma 13 Norte 0 -- -- 81
2020-04-04 09:00:00 2.5 8 Nordeste 14 Norte 0 -- -- 92
2020-04-04 08:00:00 1.2 12 Norte 14 Norte 0 -- -- 95
2020-04-04 07:00:00 1.1 10 Norte 14 Norte 0 -- -- 97
2020-04-04 06:00:00 1.3 12 Norte 13 Norte 0 -- -- 97
2020-04-04 05:00:00 1.7 7 Norte 13 Norte 0 -- -- 95
2020-04-04 04:00:00 2.1 10 Norte 13 Norte 0 -- -- 95
2020-04-04 03:00:00 2.4 10 Norte 14 Norte 0 -- -- 95
2020-04-04 02:00:00 2.7 10 Norte 17 Norte 0 -- -- 93
2020-04-04 01:00:00 3.2 12 Norte 14 Norte 0 -- -- 92
2020-04-04 00:00:00 4 9 Norte 13 Norte 0 -- -- 91
2020-04-03 23:00:00 5.1 8 Norte 12 Norte 0 -- -- 87
2020-04-03 22:00:00 6.5 8 Norte 13 Norte 0 -- -- 87
2020-04-03 21:00:00 9.3 4 Sudeste 13 Sur 0 -- -- 66
2020-04-03 20:00:00 12.2 4 Sur 15 Sudoeste 0 -- -- 60
2020-04-03 19:00:00 12.9 8 Sur 19 Sur 0 -- -- 57
2020-04-03 18:00:00 13.4 8 Sudoeste 22 Sur 0 -- -- 52
2020-04-03 17:00:00 13.1 9 Sur 19 Sur 0 -- -- 58
2020-04-03 16:00:00 13.2 9 Sudoeste 19 Sudoeste 0 -- -- 57
2020-04-03 15:00:00 11.7 9 Sur 17 Sur 0 -- -- 62
2020-04-03 14:00:00 9.7 6 Sudeste 16 Sudeste 0 -- -- 70
2020-04-03 13:00:00 8.2 5 Sur 14 Sur 0 -- -- 71
2020-04-03 12:00:00 5.9 5 Sur 11 Sur 0 -- -- 76
2020-04-03 11:00:00 4.2 4 Sur 9 Sudeste 0 -- -- 80
2020-04-03 10:00:00 3.7 3 Sudoeste 6 Sudoeste 0 -- -- 84
2020-04-03 09:00:00 2.8 3 Sudoeste 8 Oeste 0 -- -- 90
2020-04-03 08:00:00 2.3 3 Sudoeste 5 Sudoeste 0 -- -- 93
2020-04-03 07:00:00 2.6 2 Sudoeste 7 Sur 0 -- -- 92
2020-04-03 06:00:00 2.3 5 Nordeste 9 Norte 0 -- -- 92
2020-04-03 05:00:00 1.4 7 Norte 12 Norte 0 -- -- 94
2020-04-03 04:00:00 1 8 Norte 10 Nordeste 0 -- -- 97
2020-04-03 03:00:00 1.5 5 Norte 9 Norte 0 -- -- 95
2020-04-03 02:00:00 1.9 8 Norte 15 Norte 0 -- -- 91
2020-04-03 01:00:00 2 9 Norte 11 Norte 0 -- -- 92
2020-04-03 00:00:00 3.8 7 Norte 15 Oeste 0 -- -- 85
2020-04-02 23:00:00 4.4 15 Oeste 20 Oeste 0 -- -- 78
2020-04-02 22:00:00 6.7 8 Norte 14 Norte 0 -- -- 71
2020-04-02 21:00:00 7.5 8 Sudeste 18 Nordeste 0 -- -- 66
2020-04-02 20:00:00 10.1 15 Nordeste 32 Nordeste 0 -- -- 56
2020-04-02 19:00:00 10.8 19 Este 40 Este 0 -- -- 58
2020-04-02 18:00:00 11 26 Este 43 Este 0 -- -- 55
2020-04-02 17:00:00 11.2 21 Nordeste 33 Nordeste 0 -- -- 55
2020-04-02 16:00:00 10.8 24 Nordeste 37 Este 0 -- -- 57
2020-04-02 15:00:00 11.3 23 Este 34 Este 0 -- -- 55
2020-04-02 14:00:00 10.6 18 Nordeste 32 Nordeste 0 -- -- 56
2020-04-02 13:00:00 10.6 25 Este 35 Este 0 -- -- 55
2020-04-02 12:00:00 9.5 19 Nordeste 40 Nordeste 0 -- -- 64
2020-04-02 11:00:00 8.6 8 Norte 25 Nordeste 0 -- -- 74
2020-04-02 10:00:00 8.2 17 Este 31 Nordeste 0 -- -- 77
2020-04-02 09:00:00 7.2 14 Nordeste 20 Nordeste 0 -- -- 84
2020-04-02 08:00:00 4.8 2 Oeste 8 Norte 0 -- -- 97
2020-04-02 07:00:00 5 4 Norte 8 Nordeste 0 -- -- 98
2020-04-02 06:00:00 4.7 0 Calma 8 Sur 0 -- -- 98
2020-04-02 05:00:00 4.9 3 Noroeste 10 Norte 0 -- -- 97
2020-04-02 04:00:00 5.2 4 Nordeste 5 Nordeste 0 -- -- 98
2020-04-02 03:00:00 5.3 2 Sudoeste 11 Norte 0.4 -- -- 97
2020-04-02 02:00:00 5.5 9 Norte 11 Norte 1.4 -- -- 98
2020-04-02 01:00:00 5.6 5 Nordeste 8 Nordeste 1.6 -- -- 96
2020-04-02 00:00:00 5.6 0 Calma 3 Sudoeste 2 -- -- 95
2020-04-01 23:00:00 5.8 2 Sudoeste 10 Norte 1.2 -- -- 92
2020-04-01 22:00:00 6.2 8 Norte 14 Norte 0.2 -- -- 90
2020-04-01 21:00:00 7.2 4 Noroeste 13 Noroeste 0 -- -- 81
2020-04-01 20:00:00 7.8 7 Oeste 25 Sudoeste 0 -- -- 72
2020-04-01 19:00:00 8.3 15 Oeste 30 Oeste 0 -- -- 74
2020-04-01 18:00:00 11.2 15 Este 27 Este 0 -- -- 57
2020-04-01 17:00:00 11.6 14 Este 21 Nordeste 0 -- -- 56
2020-04-01 16:00:00 11.3 12 Sudeste 23 Sudeste 0 -- -- 61
2020-04-01 15:00:00 12.7 10 Sur 18 Sudeste 0 -- -- 56
2020-04-01 14:00:00 11 9 Sudeste 18 Sudeste 0 -- -- 64
2020-04-01 13:00:00 10.1 8 Sudeste 20 Sudeste 0 -- -- 74
2020-04-01 12:00:00 8.1 10 Sudeste 15 Sudeste 0 -- -- 89
2020-04-01 11:00:00 5.9 5 Sur 13 Sur 0 -- -- 98
2020-04-01 10:00:00 5.6 3 Sur 8 Sudeste 0 -- -- 99
2020-04-01 09:00:00 4.6 4 Sudeste 16 Sudeste 0 -- -- 99
2020-04-01 08:00:00 4.5 7 Sudeste 15 Este 0 -- -- 99
2020-04-01 07:00:00 4.2 8 Este 12 Este 0.2 -- -- 99
2020-04-01 06:00:00 3.7 6 Este 16 Este 0.2 -- -- 98
2020-04-01 05:00:00 3.4 14 Este 21 Sur 2.4 -- -- 98
2020-04-01 04:00:00 4 11 Sur 26 Sudeste 2.4 -- -- 95
2020-04-01 03:00:00 4.6 11 Sudeste 28 Sudeste 1.2 -- -- 96
2020-04-01 02:00:00 4.7 18 Sudeste 30 Sudeste 0.6 -- -- 95
2020-04-01 01:00:00 5.1 18 Sudeste 31 Sudeste 0 -- -- 91
2020-04-01 00:00:00 5 16 Sudeste 37 Sudeste 0 -- -- 92
2020-03-31 23:00:00 4.9 21 Sudeste 32 Sudeste 0 -- -- 93
2020-03-31 22:00:00 4.5 19 Sudeste 33 Sudeste 0.2 -- -- 95
2020-03-31 21:00:00 4.4 20 Sudeste 31 Sudeste 0.2 -- -- 94
2020-03-31 20:00:00 4.3 19 Sudeste 31 Este 0.2 -- -- 95
2020-03-31 19:00:00 4.1 21 Sudeste 36 Sudeste 0.8 -- -- 91
2020-03-31 18:00:00 5.8 16 Sudeste 39 Sudeste 0 -- -- 80
2020-03-31 17:00:00 6.5 20 Sudeste 39 Sudeste 0 -- -- 76
2020-03-31 16:00:00 8.4 20 Sudeste 39 Sudeste 0 -- -- 61
2020-03-31 15:00:00 9.3 16 Sudeste 40 Sudeste 0 -- -- 56
2020-03-31 14:00:00 9.2 19 Sudeste 35 Sur 0 -- -- 55
2020-03-31 13:00:00 7.3 15 Sudeste 39 Este 0 -- -- 54
2020-03-31 12:00:00 5.8 15 Sudeste 39 Sudeste 0 -- -- 56
2020-03-31 11:00:00 2.3 9 Sudeste 21 Sudeste 0 -- -- 59
2020-03-31 10:00:00 -0.4 3 Sudoeste 8 Sur 0 -- -- 74
2020-03-31 09:00:00 -2 0 Calma 4 Sur 0 -- -- 79
2020-03-31 08:00:00 -2.5 2 Sudoeste 5 Oeste 0 -- -- 80
2020-03-31 07:00:00 -2.7 4 Sur 9 Sur 0 -- -- 81
2020-03-31 06:00:00 -2.8 3 Sudoeste 13 Este 0 -- -- 80
2020-03-31 05:00:00 -3.1 3 Sudoeste 8 Sur 0 -- -- 79
2020-03-31 04:00:00 -2.9 2 Oeste 7 Este 0 -- -- 78
2020-03-31 03:00:00 -1 6 Sudeste 10 Sudeste 0 -- -- 75
2020-03-31 02:00:00 0 10 Este 27 Este 0 -- -- 75
2020-03-31 01:00:00 -0.2 17 Este 36 Este 0 -- -- 76
2020-03-31 00:00:00 -0.3 18 Este 30 Este 0 -- -- 73
2020-03-30 23:00:00 -0.5 18 Este 31 Este 0 -- -- 69
2020-03-30 22:00:00 -0.6 13 Este 31 Este 0 -- -- 66
2020-03-30 21:00:00 0.1 21 Este 39 Este 0 -- -- 63
2020-03-30 20:00:00 1.4 31 Este 45 Nordeste 0 -- -- 64
2020-03-30 19:00:00 2.2 31 Este 57 Nordeste 0 -- -- 56
2020-03-30 18:00:00 2.3 39 Nordeste 56 Nordeste 0 -- -- 57
2020-03-30 17:00:00 3 34 Nordeste 53 Nordeste 0 -- -- 58
2020-03-30 16:00:00 3.3 28 Este 47 Nordeste 0 -- -- 55
2020-03-30 15:00:00 3 31 Este 50 Nordeste 0 -- -- 55
2020-03-30 14:00:00 2.9 36 Este 54 Este 0 -- -- 60
2020-03-30 13:00:00 2.6 36 Este 53 Nordeste 0 -- -- 58
2020-03-30 12:00:00 2.5 30 Este 51 Este 0 -- -- 59
2020-03-30 11:00:00 2.2 23 Este 36 Este 0 -- -- 65
2020-03-30 10:00:00 1.2 19 Este 35 Este 0 -- -- 65
2020-03-30 09:00:00 1 10 Sudeste 27 Sudeste 0 -- -- 72
2020-03-30 08:00:00 1.8 18 Este 27 Este 0 -- -- 72
2020-03-30 07:00:00 2 6 Este 27 Nordeste 0 -- -- 65
2020-03-30 06:00:00 2.7 19 Este 35 Nordeste 0 -- -- 72
2020-03-30 05:00:00 3.8 13 Nordeste 26 Este 0 -- -- 71
2020-03-30 04:00:00 4 10 Nordeste 27 Nordeste 0 -- -- 69
2020-03-30 03:00:00 5 5 Nordeste 15 Norte 0 -- -- 68
2020-03-30 02:00:00 5.2 2 Noroeste 22 Norte 0 -- -- 73
2020-03-30 01:00:00 5.5 4 Sur 22 Nordeste 0 -- -- 75
2020-03-30 00:00:00 6.2 13 Nordeste 27 Nordeste 0 -- -- 74
2020-03-29 23:00:00 6.4 12 Nordeste 29 Nordeste 0 -- -- 71
2020-03-29 22:00:00 7.7 11 Nordeste 27 Nordeste 0 -- -- 65
2020-03-29 21:00:00 8.5 15 Este 35 Nordeste 0 -- -- 65
2020-03-29 20:00:00 9.6 27 Nordeste 37 Nordeste 0 -- -- 64
2020-03-29 19:00:00 11.7 20 Nordeste 30 Nordeste 0 -- -- 53
2020-03-29 18:00:00 14.6 7 Sudeste 22 Sur 0 -- -- 38
2020-03-29 17:00:00 17.2 8 Sudoeste 22 Sudoeste 0 -- -- 32
2020-03-29 16:00:00 15.8 10 Sur 19 Sudoeste 0 -- -- 36
2020-03-29 15:00:00 15.4 6 Sudoeste 17 Sudoeste 0 -- -- 35
2020-03-29 14:00:00 14 8 Sur 17 Sur 0 -- -- 43
2020-03-29 13:00:00 13 7 Sudoeste 17 Sudoeste 0 -- -- 45
2020-03-29 12:00:00 11.4 7 Sudoeste 14 Sur 0 -- -- 50
2020-03-29 11:00:00 9.4 5 Sur 10 Sur 0 -- -- 57
2020-03-29 10:00:00 5.7 3 Norte 14 Norte 0 -- -- 75
2020-03-29 09:00:00 2.7 12 Norte 15 Norte 0 -- -- 80
2020-03-29 08:00:00 1.5 12 Norte 17 Norte 0 -- -- 81
2020-03-29 07:00:00 1.7 13 Norte 15 Norte 0 -- -- 79
2020-03-29 06:00:00 1.6 11 Norte 17 Norte 0 -- -- 76
2020-03-29 05:00:00 2.1 0 Calma 17 Norte 0 -- -- 69
2020-03-29 03:00:00 3.8 8 Norte 17 Norte 0 -- -- 64
2020-03-29 01:00:00 3.7 14 Nordeste 18 Nordeste 0 -- -- 69
2020-03-29 00:00:00 3.7 14 Norte 18 Norte 0 -- -- 68
2020-03-28 23:00:00 4.1 14 Norte 16 Norte 0 -- -- 65
2020-03-28 22:00:00 4.8 13 Norte 16 Norte 0 -- -- 64
2020-03-28 21:00:00 6.4 12 Norte 18 Norte 0 -- -- 58
2020-03-28 20:00:00 8.8 5 Norte 8 Sudoeste 0 -- -- 59
2020-03-28 19:00:00 12.6 5 Sudoeste 17 Sudoeste 0 -- -- 35
2020-03-28 18:00:00 14.5 8 Sudoeste 22 Sudoeste 0 -- -- 32
2020-03-28 17:00:00 15.7 10 Sudoeste 22 Sur 0 -- -- 30
2020-03-28 16:00:00 15.4 6 Sur 19 Sur 0 -- -- 31
2020-03-28 15:00:00 14.3 6 Sudoeste 21 Sudoeste 0 -- -- 32
2020-03-28 14:00:00 14.3 8 Sur 21 Sudoeste 0 -- -- 36
2020-03-28 13:00:00 13.2 6 Oeste 18 Sur 0 -- -- 35
2020-03-28 12:00:00 12.1 6 Sudoeste 20 Sudoeste 0 -- -- 40
2020-03-28 11:00:00 10.3 7 Sudoeste 14 Sudoeste 0 -- -- 46
2020-03-28 10:00:00 7.7 5 Sudoeste 9 Sudoeste 0 -- -- 55
2020-03-28 09:00:00 4.4 2 Norte 10 Norte 0 -- -- 68
2020-03-28 08:00:00 1.9 9 Norte 12 Norte 0 -- -- 75
2020-03-28 07:00:00 0.5 9 Norte 13 Norte 0 -- -- 81
2020-03-28 06:00:00 0.6 9 Norte 14 Norte 0 -- -- 81
2020-03-28 05:00:00 0.8 10 Norte 19 Norte 0 -- -- 81
2020-03-28 04:00:00 0.9 12 Norte 17 Norte 0 -- -- 78
2020-03-28 03:00:00 0.9 11 Nordeste 15 Norte 0 -- -- 74
2020-03-28 02:00:00 1.2 12 Norte 15 Norte 0 -- -- 74
2020-03-28 01:00:00 1.6 9 Norte 17 Norte 0 -- -- 71
2020-03-28 00:00:00 2.2 13 Norte 18 Norte 0 -- -- 70
2020-03-27 23:00:00 2.5 12 Norte 17 Norte 0 -- -- 68
2020-03-27 22:00:00 3 11 Nordeste 17 Nordeste 0 -- -- 69
2020-03-27 21:00:00 4.3 10 Norte 14 Norte 0 -- -- 69
2020-03-27 20:00:00 6.6 4 Sur 18 Sur 0 -- -- 43
2020-03-27 19:00:00 9.1 8 Sur 29 Sudeste 0 -- -- 36
2020-03-27 18:00:00 9.9 12 Sur 29 Sur 0 -- -- 33
2020-03-27 17:00:00 11 12 Sur 30 Sur 0 -- -- 36
2020-03-27 16:00:00 10.8 13 Sur 32 Sur 0 -- -- 36
2020-03-27 15:00:00 10.4 16 Sur 37 Sudeste 0 -- -- 35
2020-03-27 14:00:00 9.7 16 Sur 36 Sudeste 0 -- -- 38
2020-03-27 13:00:00 8.6 18 Sudeste 31 Sudeste 0 -- -- 41
2020-03-27 12:00:00 7.1 12 Sur 34 Sudeste 0 -- -- 44
2020-03-27 11:00:00 5.3 19 Sudeste 35 Sudeste 0 -- -- 50
2020-03-27 10:00:00 3.7 15 Sudeste 27 Sudeste 0 -- -- 54
2020-03-27 09:00:00 1.5 2 Sur 10 Sudeste 0 -- -- 74
2020-03-27 08:00:00 -0.8 4 Nordeste 9 Nordeste 0 -- -- 92
2020-03-27 07:00:00 -1.5 4 Este 10 Sudeste 0 -- -- 91
2020-03-27 06:00:00 -0.9 5 Este 9 Este 0 -- -- 86
2020-03-27 05:00:00 -2.1 5 Sudeste 15 Oeste 0 -- -- 83
2020-03-27 04:00:00 -0.5 4 Oeste 17 Oeste 0 -- -- 74
2020-03-27 03:00:00 0.5 5 Sudoeste 22 Este 0 -- -- 69
2020-03-27 02:00:00 1.1 2 Nordeste 14 Norte 0 -- -- 71
2020-03-27 01:00:00 1 4 Norte 12 Noroeste 0 -- -- 77
2020-03-27 00:00:00 1.2 4 Oeste 13 Oeste 0 -- -- 68
2020-03-26 23:00:00 3.3 5 Sudoeste 20 Nordeste 0 -- -- 57
2020-03-26 22:00:00 4.5 8 Este 36 Este 0 -- -- 58
2020-03-26 21:00:00 5.9 27 Este 36 Este 0 -- -- 58
2020-03-26 20:00:00 8.8 8 Norte 33 Nordeste 0 -- -- 41
2020-03-26 19:00:00 11.4 23 Nordeste 32 Nordeste 0 -- -- 41
2020-03-26 18:00:00 14.2 13 Norte 36 Oeste 0 -- -- 24
2020-03-26 17:00:00 15.8 23 Oeste 35 Oeste 0 -- -- 28
2020-03-26 16:00:00 15.9 17 Oeste 33 Oeste 0 -- -- 24
2020-03-26 15:00:00 15.9 13 Oeste 24 Oeste 0 -- -- 24
2020-03-26 14:00:00 14.9 8 Oeste 23 Oeste 0 -- -- 25
2020-03-26 13:00:00 13.2 15 Oeste 33 Oeste 0 -- -- 24
2020-03-26 12:00:00 11.1 23 Oeste 33 Oeste 0 -- -- 29
2020-03-26 11:00:00 10.1 15 Oeste 24 Oeste 0 -- -- 33
2020-03-26 10:00:00 7.8 2 Este 9 Nordeste 0 -- -- 39
2020-03-26 09:00:00 4.8 4 Noroeste 13 Norte 0 -- -- 52
2020-03-26 08:00:00 2.8 8 Norte 19 Norte 0 -- -- 57
2020-03-26 07:00:00 2.6 7 Norte 17 Norte 0 -- -- 53
2020-03-26 06:00:00 2.2 2 Nordeste 17 Norte 0 -- -- 47
2020-03-26 05:00:00 2.4 6 Noroeste 17 Norte 0 -- -- 40
2020-03-26 04:00:00 2.9 9 Norte 18 Norte 0 -- -- 45
2020-03-26 03:00:00 4 9 Norte 15 Norte 0 -- -- 42
2020-03-26 02:00:00 4.3 7 Norte 14 Norte 0 -- -- 43
2020-03-26 01:00:00 6 12 Norte 21 Norte 0 -- -- 41
2020-03-26 00:00:00 6.6 8 Norte 23 Norte 0 -- -- 37
2020-03-25 23:00:00 8.2 12 Norte 26 Norte 0 -- -- 29
2020-03-25 22:00:00 8.2 14 Norte 20 Norte 0 -- -- 48
2020-03-25 21:00:00 8.1 4 Sur 19 Norte 0 -- -- 54
2020-03-25 20:00:00 10.6 14 Nordeste 36 Nordeste 0 -- -- 47
2020-03-25 19:00:00 13.3 24 Nordeste 34 Norte 0 -- -- 32
2020-03-25 18:00:00 14.5 21 Nordeste 40 Nordeste 0 -- -- 33
2020-03-25 17:00:00 15 27 Nordeste 40 Nordeste 0 -- -- 36
2020-03-25 16:00:00 16.4 6 Nordeste 28 Oeste 0 -- -- 30
2020-03-25 15:00:00 15.4 16 Norte 38 Noroeste 0 -- -- 45
2020-03-25 14:00:00 16.3 21 Noroeste 38 Oeste 0 -- -- 42
2020-03-25 13:00:00 15.1 23 Oeste 36 Oeste 0 -- -- 53
2020-03-25 12:00:00 14 22 Noroeste 38 Noroeste 0 -- -- 55
2020-03-25 11:00:00 12.7 21 Noroeste 33 Oeste 0 -- -- 60
2020-03-25 10:00:00 11.3 14 Noroeste 25 Oeste 0 -- -- 64
2020-03-25 09:00:00 8.5 7 Noroeste 15 Noroeste 0 -- -- 75
2020-03-25 08:00:00 4.4 11 Norte 14 Norte 0 -- -- 87
2020-03-25 07:00:00 3.3 5 Norte 14 Norte 0 -- -- 89
2020-03-25 06:00:00 3.9 10 Norte 15 Norte 0 -- -- 89
2020-03-25 05:00:00 3.6 12 Norte 15 Norte 0 -- -- 91
2020-03-25 04:00:00 3.8 12 Norte 15 Norte 0 -- -- 89
2020-03-25 03:00:00 4.1 12 Norte 15 Norte 0 -- -- 90
2020-03-25 02:00:00 4.6 8 Norte 15 Norte 0 -- -- 88
2020-03-25 01:00:00 5 13 Norte 19 Norte 0 -- -- 87
2020-03-25 00:00:00 5.7 9 Norte 14 Norte 0 -- -- 88
2020-03-24 23:00:00 6.7 10 Norte 15 Norte 0 -- -- 82
2020-03-24 22:00:00 7.3 10 Norte 12 Norte 0 -- -- 81
2020-03-24 21:00:00 7.7 9 Norte 10 Norte 0 -- -- 82
2020-03-24 20:00:00 11.6 3 Sur 12 Sudoeste 0 -- -- 67
2020-03-24 19:00:00 14.4 5 Sudoeste 20 Sur 0 -- -- 52
2020-03-24 18:00:00 15.5 7 Sur 20 Sur 0 -- -- 50
2020-03-24 17:00:00 15.9 11 Sur 21 Sur 0 -- -- 49
2020-03-24 16:00:00 16.1 7 Sudoeste 21 Sur 0 -- -- 51
2020-03-24 15:00:00 13.8 3 Nordeste 20 Sur 0 -- -- 53
2020-03-24 14:00:00 14.1 7 Sudeste 22 Sur 0 -- -- 53
2020-03-24 13:00:00 14.2 11 Sur 26 Sur 0 -- -- 55
2020-03-24 12:00:00 11.5 9 Sur 24 Sur 0 -- -- 64
2020-03-24 11:00:00 11 5 Sudeste 23 Sudeste 0 -- -- 68
2020-03-24 10:00:00 9.1 12 Sudeste 27 Sudeste 0 -- -- 74
2020-03-24 09:00:00 8.9 15 Sudeste 24 Sudeste 0 -- -- 78
2020-03-24 08:00:00 7.4 11 Este 17 Este 0 -- -- 84
2020-03-24 07:00:00 7.4 10 Sudeste 21 Sudeste 0 -- -- 84
2020-03-24 06:00:00 7.4 11 Este 20 Este 0 -- -- 85
2020-03-24 05:00:00 7.4 12 Este 23 Este 0 -- -- 86
2020-03-24 04:00:00 7.4 10 Este 20 Este 0 -- -- 86
2020-03-24 03:00:00 7.7 12 Este 19 Sudeste 0 -- -- 86
2020-03-24 02:00:00 8.2 11 Sudeste 17 Sudeste 0 -- -- 83
2020-03-24 01:00:00 8.3 5 Sudeste 15 Sudeste 0 -- -- 81
2020-03-24 00:00:00 8.6 7 Sudeste 20 Sudeste 0 -- -- 80
2020-03-23 23:00:00 8.7 9 Sudeste 14 Sudeste 0 -- -- 77
2020-03-23 22:00:00 7.8 5 Nordeste 12 Norte 0 -- -- 75
2020-03-23 21:00:00 7.1 6 Norte 11 Norte 0 -- -- 80
2020-03-23 20:00:00 10.1 3 Sudeste 10 Sur 0 -- -- 63
2020-03-23 19:00:00 12.4 6 Sur 16 Sudoeste 0 -- -- 52
2020-03-23 18:00:00 13.4 8 Sur 21 Sudoeste 0 -- -- 50
2020-03-23 17:00:00 13.6 8 Sur 30 Sur 0 -- -- 52
2020-03-23 16:00:00 14.3 10 Sur 23 Sur 0 -- -- 50
2020-03-23 15:00:00 14.5 11 Sur 23 Sudeste 0 -- -- 49
2020-03-23 14:00:00 14.1 12 Sur 24 Sur 0 -- -- 47
2020-03-23 13:00:00 13.3 8 Sur 21 Sur 0 -- -- 56
2020-03-23 12:00:00 12.8 8 Sur 18 Sudeste 0 -- -- 56
2020-03-23 11:00:00 10.9 9 Sudeste 17 Sudeste 0 -- -- 64
2020-03-23 10:00:00 9.7 11 Sudeste 23 Sudeste 0 -- -- 68
2020-03-23 09:00:00 6.5 4 Norte 13 Norte 0 -- -- 74
2020-03-23 08:00:00 3.6 11 Norte 14 Norte 0 -- -- 85
2020-03-23 07:00:00 3.5 9 Norte 14 Norte 0 -- -- 84
2020-03-23 06:00:00 4.2 9 Norte 16 Norte 0 -- -- 77
2020-03-23 05:00:00 2.6 12 Norte 15 Norte 0 -- -- 85
2020-03-23 04:00:00 2.6 10 Norte 13 Norte 0 -- -- 86
2020-03-23 03:00:00 3.6 10 Norte 15 Norte 0 -- -- 83
2020-03-23 02:00:00 4 13 Norte 17 Norte 0 -- -- 84
2020-03-23 01:00:00 4.4 10 Norte 14 Norte 0 -- -- 86
2020-03-23 00:00:00 5.7 5 Norte 9 Sur 0 -- -- 84
2020-03-22 23:00:00 6.8 6 Oeste 11 Este 0 -- -- 73
2020-03-22 22:00:00 9.1 9 Nordeste 23 Nordeste 0 -- -- 65
2020-03-22 21:00:00 8.9 10 Nordeste 21 Nordeste 0 -- -- 73
2020-03-22 20:00:00 8.5 10 Norte 14 Norte 0 -- -- 81
2020-03-22 19:00:00 10.7 5 Sur 9 Sudeste 0 -- -- 71
2020-03-22 18:00:00 10.9 0 Calma 21 Sudeste 0 -- -- 68
2020-03-22 17:00:00 12.5 8 Sudeste 31 Sur 0 -- -- 62
2020-03-22 16:00:00 16.3 8 Sur 19 Sur 0 -- -- 47
2020-03-22 15:00:00 15.5 4 Sur 22 Sudoeste 0 -- -- 50
2020-03-22 14:00:00 16.2 9 Sur 22 Sudoeste 0 -- -- 51
2020-03-22 13:00:00 15.3 9 Sur 21 Sudoeste 0 -- -- 51
2020-03-22 12:00:00 14.1 6 Sur 14 Sur 0 -- -- 62
2020-03-22 11:00:00 11.4 6 Sur 10 Sur 0 -- -- 76
2020-03-22 10:00:00 9.3 4 Sudoeste 8 Sudoeste 0 -- -- 85
2020-03-22 09:00:00 5.5 5 Norte 11 Norte 0 -- -- 94
2020-03-22 08:00:00 3.4 8 Norte 10 Norte 0 -- -- 98
2020-03-22 07:00:00 4.1 3 Nordeste 7 Norte 0 -- -- 97
2020-03-22 06:00:00 5 2 Norte 5 Noroeste 0 -- -- 96
2020-03-22 05:00:00 5.8 4 Sudeste 15 Norte 0 -- -- 92
2020-03-22 04:00:00 6.4 6 Norte 10 Norte 0 -- -- 93
2020-03-22 03:00:00 6.5 4 Sudeste 8 Sudeste 0 -- -- 91
2020-03-22 02:00:00 6.5 4 Sudoeste 9 Nordeste 0 -- -- 88
2020-03-22 01:00:00 7.7 3 Nordeste 13 Norte 0 -- -- 89
2020-03-22 00:00:00 6.8 8 Norte 10 Norte 0 -- -- 92
2020-03-21 23:00:00 7.8 6 Norte 9 Norte 0 -- -- 89
2020-03-21 22:00:00 7.9 5 Norte 15 Norte 0 -- -- 90
2020-03-21 21:00:00 8.4 11 Norte 15 Norte 0 -- -- 89
2020-03-21 20:00:00 9 2 Nordeste 13 Sur 0 -- -- 87
2020-03-21 19:00:00 11.4 5 Sudoeste 15 Sudoeste 0 -- -- 74
2020-03-21 18:00:00 13.3 6 Sur 14 Sur 0 -- -- 65
2020-03-21 17:00:00 14.2 5 Sudoeste 16 Sudoeste 0 -- -- 63
2020-03-21 16:00:00 13.9 5 Sur 13 Oeste 0 -- -- 64
2020-03-21 15:00:00 11.6 2 Nordeste 9 Sudeste 0 -- -- 70
2020-03-21 14:00:00 12 4 Este 9 Sudoeste 0 -- -- 71
2020-03-21 13:00:00 11 4 Sur 14 Sudeste 0 -- -- 76
2020-03-21 12:00:00 9.8 5 Sudeste 14 Sudeste 0 -- -- 80
2020-03-21 11:00:00 8.6 9 Sudeste 22 Este 0 -- -- 87
2020-03-21 10:00:00 8.5 17 Sudeste 23 Sudeste 0 -- -- 86
2020-03-21 09:00:00 7.4 9 Sudeste 19 Sudeste 0 -- -- 93
2020-03-21 08:00:00 6.7 8 Sudeste 17 Este 0 -- -- 94
2020-03-21 07:00:00 6.7 9 Sudeste 19 Sudeste 0 -- -- 92
2020-03-21 06:00:00 7.1 11 Sudeste 26 Sudeste 0 -- -- 93
2020-03-21 05:00:00 7.7 9 Sudeste 15 Sudeste 0 -- -- 97
2020-03-21 04:00:00 7.8 4 Sudeste 14 Este 0 -- -- 98
2020-03-21 03:00:00 7.8 9 Este 17 Este 0 -- -- 98
2020-03-21 02:00:00 7.8 8 Este 13 Este 0 -- -- 97
2020-03-21 01:00:00 8.2 5 Sudeste 16 Este 0 -- -- 93
2020-03-21 00:00:00 8.3 8 Este 13 Este 0 -- -- 94
2020-03-20 23:00:00 8.3 4 Nordeste 7 Nordeste 0 -- -- 96
2020-03-20 22:00:00 8.2 5 Norte 6 Norte 0 -- -- 97
2020-03-20 21:00:00 8.4 4 Nordeste 9 Nordeste 0 -- -- 97
2020-03-20 20:00:00 8.5 3 Este 7 Sudeste 0 -- -- 95
2020-03-20 19:00:00 9.1 3 Sudeste 9 Sudeste 0 -- -- 93
2020-03-20 18:00:00 9.4 4 Sur 28 Sur 1.4 -- -- 93
2020-03-20 17:00:00 10.8 6 Sudeste 23 Sudeste 0 -- -- 78
2020-03-20 16:00:00 11.7 9 Sudeste 28 Sudeste 0 -- -- 72
2020-03-20 15:00:00 10.8 9 Sudeste 18 Sudeste 0 -- -- 76
2020-03-20 14:00:00 10.4 9 Sur 17 Sur 0 -- -- 78
2020-03-20 13:00:00 10.5 9 Sudeste 20 Sudeste 0 -- -- 76
2020-03-20 12:00:00 9.6 8 Sudeste 19 Sudeste 0 -- -- 82
2020-03-20 11:00:00 8.4 9 Sudeste 17 Sudeste 0 -- -- 86
2020-03-20 10:00:00 7.7 9 Sudeste 17 Sudeste 0 -- -- 88
2020-03-20 09:00:00 7.4 7 Sudeste 16 Este 0 -- -- 88
2020-03-20 08:00:00 6.9 10 Este 15 Este 0 -- -- 91
2020-03-20 07:00:00 6.6 9 Este 14 Este 0.2 -- -- 92
2020-03-20 06:00:00 7.2 6 Este 15 Este 0 -- -- 86
2020-03-20 05:00:00 7.3 4 Nordeste 11 Norte 0 -- -- 83
2020-03-20 04:00:00 6.6 7 Norte 10 Norte 0 -- -- 85
2020-03-20 03:00:00 7.3 4 Nordeste 12 Norte 0 -- -- 80
2020-03-20 02:00:00 7.1 2 Norte 6 Norte 0 -- -- 80
2020-03-20 01:00:00 6.7 5 Norte 10 Norte 0 -- -- 81
2020-03-20 00:00:00 7 8 Nordeste 11 Nordeste 0 -- -- 75
2020-03-19 23:00:00 8.7 6 Nordeste 12 Nordeste 0 -- -- 71
2020-03-19 22:00:00 9 6 Nordeste 10 Nordeste 0 -- -- 67
2020-03-19 21:00:00 9.1 5 Nordeste 9 Nordeste 0 -- -- 61
2020-03-19 20:00:00 9.9 4 Nordeste 13 Sudeste 0 -- -- 61
2020-03-19 19:00:00 12.4 8 Sudeste 20 Sudeste 0 -- -- 52
2020-03-19 18:00:00 14.5 10 Sudeste 21 Sur 0 -- -- 50
2020-03-19 17:00:00 16 10 Sudeste 26 Sur 0 -- -- 56
2020-03-19 16:00:00 17.1 12 Sur 25 Sur 0 -- -- 56
2020-03-19 15:00:00 18 9 Sur 20 Sur 0 -- -- 52
2020-03-19 14:00:00 17.5 8 Sur 21 Sur 0 -- -- 55
2020-03-19 13:00:00 16.6 7 Sudoeste 16 Sudoeste 0 -- -- 58
2020-03-19 12:00:00 15.7 7 Sur 18 Sur 0 -- -- 61
2020-03-19 11:00:00 14 8 Sudeste 15 Sudeste 0 -- -- 65
2020-03-19 10:00:00 11.7 4 Sudeste 9 Sudeste 0 -- -- 76
2020-03-19 09:00:00 7.4 7 Norte 11 Norte 0 -- -- 88
2020-03-19 08:00:00 5.7 8 Norte 12 Norte 0 -- -- 93
2020-03-19 07:00:00 5.7 9 Norte 12 Norte 0 -- -- 92
2020-03-19 06:00:00 5.7 9 Norte 11 Norte 0 -- -- 92
2020-03-19 05:00:00 6.2 6 Nordeste 11 Norte 0 -- -- 90
2020-03-19 04:00:00 6.9 4 Norte 12 Norte 0 -- -- 88
2020-03-19 03:00:00 7.3 10 Norte 15 Norte -- -- -- 85
2020-03-19 02:00:00 7.6 11 Norte 13 Norte 0 -- -- 85
2020-03-19 01:00:00 7.9 11 Norte 19 Norte 0 -- -- 85
2020-03-19 00:00:00 8 11 Norte 15 Norte 0 -- -- 85
2020-03-18 23:00:00 8.4 7 Norte 14 Norte 0 -- -- 84
2020-03-18 22:00:00 9 12 Norte 14 Norte 0 -- -- 82
2020-03-18 21:00:00 9.6 9 Norte 11 Norte 0 -- -- 82
2020-03-18 20:00:00 11.9 4 Nordeste 8 Sudeste 0 -- -- 73
2020-03-18 19:00:00 15.5 3 Sur 15 Sur 0 -- -- 56
2020-03-18 18:00:00 17.4 5 Sur 19 Sudoeste 0 -- -- 50
2020-03-18 17:00:00 18.1 9 Sur 18 Sudoeste 0 -- -- 51
2020-03-18 16:00:00 18.2 6 Sudoeste 17 Sudoeste 0 -- -- 49
2020-03-18 15:00:00 18.2 7 Sudoeste 17 Sudoeste 0 -- -- 52
2020-03-18 14:00:00 17.1 7 Sur 15 Sur 0 -- -- 54
2020-03-18 13:00:00 16.1 7 Sur 15 Sur 0 -- -- 63
2020-03-18 12:00:00 14.3 6 Sur 14 Sur 0 -- -- 64
2020-03-18 11:00:00 12.5 5 Sur 12 Sur 0 -- -- 72
2020-03-18 10:00:00 10.6 3 Sudoeste 8 Sudoeste 0 -- -- 80
2020-03-18 09:00:00 7.4 0 Calma 8 Norte 0 -- -- 91
2020-03-18 08:00:00 6 4 Norte 6 Norte 0 -- -- 97
2020-03-18 07:00:00 7.5 3 Norte 5 Norte 0 -- -- 94
2020-03-18 06:00:00 8.3 0 Calma 7 Este 0 -- -- 89
2020-03-18 05:00:00 8.6 3 Este 10 Este 0 -- -- 90
2020-03-18 04:00:00 8.5 6 Sudeste 8 Sudeste 0 -- -- 89
2020-03-18 03:00:00 8.7 5 Este 9 Sudeste 0 -- -- 89
2020-03-18 02:00:00 8.4 3 Nordeste 7 Este 0 -- -- 90
2020-03-18 01:00:00 7.5 5 Nordeste 12 Nordeste 0 -- -- 91
2020-03-18 00:00:00 7 7 Nordeste 13 Nordeste 0 -- -- 91
2020-03-17 23:00:00 6 5 Nordeste 12 Norte 0 -- -- 92
2020-03-17 22:00:00 6.5 7 Nordeste 10 Norte 0 -- -- 92
2020-03-17 21:00:00 7 9 Norte 13 Norte 0 -- -- 90
2020-03-17 20:00:00 9.2 3 Sudeste 15 Sudeste 0 -- -- 80
2020-03-17 19:00:00 11 6 Sudeste 18 Sur 0 -- -- 73
2020-03-17 18:00:00 11.6 10 Sur 21 Sur 0 -- -- 69
2020-03-17 17:00:00 12.2 11 Sur 26 Sudeste 0 -- -- 68
2020-03-17 16:00:00 12.7 15 Sur 33 Sur 0 -- -- 66
2020-03-17 15:00:00 14.4 14 Sudeste 34 Sudeste 0 -- -- 59
2020-03-17 14:00:00 14.5 16 Sudeste 37 Sudeste 0 -- -- 56
2020-03-17 13:00:00 14.6 15 Sudeste 38 Sudeste 0 -- -- 58
2020-03-17 12:00:00 13.6 13 Sudeste 29 Sudeste 0 -- -- 60
2020-03-17 11:00:00 11.5 15 Sudeste 33 Este 0 -- -- 61
2020-03-17 10:00:00 10.7 15 Este 22 Este 0 -- -- 62
2020-03-17 09:00:00 8.8 5 Sudeste 13 Este 0 -- -- 65
2020-03-17 08:00:00 6.9 4 Sudoeste 9 Sur 0 -- -- 70
2020-03-17 07:00:00 8.1 3 Sur 16 Este 0 -- -- 64
2020-03-17 06:00:00 8.4 7 Este 12 Este 0 -- -- 65
2020-03-17 05:00:00 6.6 4 Sudoeste 20 Este 0 -- -- 65
2020-03-17 04:00:00 8.1 17 Nordeste 30 Nordeste 0 -- -- 63
2020-03-17 03:00:00 4.9 0 Calma 9 Sudoeste 0 -- -- 69
2020-03-17 02:00:00 5.4 4 Oeste 18 Este 0 -- -- 62
2020-03-17 01:00:00 5.1 5 Este 33 Nordeste 0 -- -- 60
2020-03-17 00:00:00 5.9 17 Nordeste 37 Norte 0 -- -- 55
2020-03-16 23:00:00 6.1 14 Nordeste 43 Nordeste 0 -- -- 51
2020-03-16 22:00:00 6.5 15 Nordeste 46 Nordeste 0 -- -- 45
2020-03-16 21:00:00 5.7 31 Nordeste 62 Nordeste 0 -- -- 52
2020-03-16 20:00:00 5.3 29 Nordeste 49 Norte 0 -- -- 55
2020-03-16 19:00:00 6.2 23 Nordeste 49 Nordeste 0 -- -- 53
2020-03-16 18:00:00 7.3 38 Nordeste 58 Nordeste 0 -- -- 56
2020-03-16 17:00:00 7.9 36 Nordeste 75 Nordeste 0 -- -- 51
2020-03-16 16:00:00 7.9 49 Nordeste 76 Nordeste 0 -- -- 51
2020-03-16 15:00:00 7.8 47 Nordeste 70 Nordeste 0 -- -- 51
2020-03-16 14:00:00 8 34 Nordeste 51 Nordeste 0 -- -- 52
2020-03-16 13:00:00 7.8 24 Nordeste 61 Nordeste 0 -- -- 46
2020-03-16 12:00:00 6.8 27 Nordeste 67 Nordeste 0 -- -- 50
2020-03-16 11:00:00 6.2 32 Nordeste 52 Nordeste 0 -- -- 55
2020-03-16 10:00:00 5.3 14 Norte 28 Nordeste 0 -- -- 55
2020-03-16 09:00:00 4.1 10 Nordeste 27 Norte 0 -- -- 66
2020-03-16 08:00:00 2.2 11 Noroeste 32 Noroeste 0 -- -- 71
2020-03-16 07:00:00 2.6 17 Noroeste 34 Norte 0 -- -- 69
2020-03-16 06:00:00 1.8 15 Oeste 42 Norte 0.2 -- -- 73
2020-03-16 05:00:00 2.5 17 Norte 29 Norte 0 -- -- 66
2020-03-16 04:00:00 2.3 15 Norte 31 Norte 0 -- -- 73
2020-03-16 03:00:00 2.1 12 Noroeste 21 Norte 0 -- -- 73
2020-03-16 02:00:00 2 13 Norte 29 Norte 0 -- -- 75
2020-03-16 01:00:00 1.2 12 Noroeste 27 Noroeste 0 -- -- 84
2020-03-16 00:00:00 1.7 11 Noroeste 30 Norte 0 -- -- 76
2020-03-15 23:00:00 1.5 18 Norte 31 Noroeste 0 -- -- 79
2020-03-15 22:00:00 1.3 9 Norte 22 Noroeste 0.4 -- -- 90
2020-03-15 21:00:00 1.1 14 Norte 30 Noroeste 0.4 -- -- 94
2020-03-15 20:00:00 1.9 15 Noroeste 41 Noroeste 0.2 -- -- 86
2020-03-15 19:00:00 3.2 28 Noroeste 55 Noroeste 0 -- -- 84
2020-03-15 18:00:00 7.9 42 Noroeste 62 Noroeste 0 -- -- 70
2020-03-15 17:00:00 12.8 23 Noroeste 45 Noroeste 0 -- -- 42
2020-03-15 16:00:00 12.8 28 Noroeste 45 Noroeste 0 -- -- 40
2020-03-15 15:00:00 10.6 24 Oeste 51 Oeste 0 -- -- 55
2020-03-15 14:00:00 12.3 28 Noroeste 43 Oeste 0 -- -- 50
2020-03-15 13:00:00 13.6 12 Oeste 24 Oeste 0 -- -- 44
2020-03-15 12:00:00 11.9 4 Sur 15 Sur 0 -- -- 52
2020-03-15 11:00:00 10.2 5 Sur 13 Sur 0 -- -- 58
2020-03-15 10:00:00 7.7 2 Sudoeste 10 Norte 0 -- -- 66
2020-03-15 09:00:00 4.1 9 Norte 15 Norte 0 -- -- 77
2020-03-15 08:00:00 1.4 13 Norte 16 Norte 0 -- -- 87
2020-03-15 07:00:00 1.6 12 Norte 16 Norte 0 -- -- 86
2020-03-15 06:00:00 1.7 13 Norte 15 Norte 0 -- -- 86
2020-03-15 05:00:00 2.3 12 Norte 17 Norte 0 -- -- 85
2020-03-15 04:00:00 2.8 13 Norte 17 Norte 0 -- -- 82
2020-03-15 03:00:00 3.2 12 Norte 18 Norte 0 -- -- 81
2020-03-15 02:00:00 3.6 12 Norte 16 Norte 0 -- -- 80
2020-03-15 01:00:00 4.3 13 Norte 18 Norte 0 -- -- 78
2020-03-15 00:00:00 4.5 14 Norte 17 Norte 0 -- -- 78
2020-03-14 23:00:00 5.1 13 Norte 17 Norte 0 -- -- 75
2020-03-14 22:00:00 5.9 13 Norte 16 Norte 0 -- -- 73
2020-03-14 21:00:00 7.2 11 Norte 14 Norte 0 -- -- 70
2020-03-14 20:00:00 8.8 3 Norte 8 Sudoeste 0 -- -- 70
2020-03-14 19:00:00 14.9 4 Sudoeste 17 Sudoeste 0 -- -- 45
2020-03-14 18:00:00 16.7 8 Sudoeste 19 Sudoeste 0 -- -- 41
2020-03-14 17:00:00 17 10 Sudoeste 22 Sudoeste 0 -- -- 40
2020-03-14 16:00:00 17 10 Sudoeste 24 Sudoeste 0 -- -- 45
2020-03-14 15:00:00 16.5 12 Sur 23 Sudoeste 0 -- -- 46
2020-03-14 14:00:00 16.7 9 Sudoeste 22 Noroeste 0 -- -- 46
2020-03-14 13:00:00 15.4 12 Oeste 24 Oeste 0 -- -- 25
2020-03-14 12:00:00 13.2 8 Sudoeste 17 Oeste 0 -- -- 45
2020-03-14 11:00:00 10.2 5 Sudoeste 12 Oeste 0 -- -- 70
2020-03-14 10:00:00 6.4 2 Oeste 6 Sudoeste 0 -- -- 87
2020-03-14 09:00:00 3.3 0 Calma 4 Sur 0 -- -- 93
2020-03-14 08:00:00 1.8 2 Noroeste 8 Norte 0 -- -- 97
2020-03-14 07:00:00 2.2 0 Calma 7 Norte 0 -- -- 97
2020-03-14 06:00:00 2.1 5 Oeste 10 Norte 0 -- -- 97
2020-03-14 05:00:00 3 2 Oeste 10 Norte 0 -- -- 95
2020-03-14 04:00:00 4.2 4 Oeste 18 Norte 0 -- -- 90
2020-03-14 03:00:00 4.1 6 Norte 17 Norte 0 -- -- 98
2020-03-14 02:00:00 3.4 10 Norte 14 Norte 0 -- -- 99
2020-03-14 01:00:00 3.5 8 Norte 13 Norte 0 -- -- 97
2020-03-14 00:00:00 4 10 Norte 13 Norte 0 -- -- 96
2020-03-13 23:00:00 4.9 9 Norte 11 Norte 0 -- -- 94
2020-03-13 22:00:00 6.2 3 Este 8 Norte 0 -- -- 91
2020-03-13 21:00:00 9 6 Noroeste 12 Noroeste 0 -- -- 79
2020-03-13 20:00:00 10.8 11 Noroeste 18 Noroeste 0 -- -- 69
2020-03-13 19:00:00 13.4 14 Noroeste 27 Oeste 0 -- -- 61
2020-03-13 18:00:00 15 20 Oeste 30 Oeste 0 -- -- 52
2020-03-13 17:00:00 15.4 17 Oeste 30 Oeste 0 -- -- 56
2020-03-13 16:00:00 15.3 19 Oeste 36 Oeste 0 -- -- 57
2020-03-13 15:00:00 15.2 6 Sudoeste 16 Sudoeste 0 -- -- 58
2020-03-13 14:00:00 13.2 7 Sudoeste 14 Sudoeste 0 -- -- 64
2020-03-13 13:00:00 12.4 7 Oeste 14 Oeste 0 -- -- 66
2020-03-13 12:00:00 10.8 3 Sudeste 6 Este 0 -- -- 73
2020-03-13 11:00:00 8.8 0 Calma 7 Sudeste 0 -- -- 80
2020-03-13 10:00:00 7.4 3 Sudoeste 6 Sudoeste 0 -- -- 86
2020-03-13 09:00:00 7 3 Sudoeste 8 Sudoeste 0 -- -- 88
2020-03-13 08:00:00 7 3 Sudoeste 7 Sudoeste 0 -- -- 90
2020-03-13 07:00:00 7.3 3 Sudoeste 5 Sudoeste 0 -- -- 88
2020-03-13 06:00:00 7.4 0 Calma 4 Sudeste 0 -- -- 86
2020-03-13 05:00:00 7.5 0 Calma 3 Sur 0 -- -- 85
2020-03-13 04:00:00 7.7 0 Calma 8 Oeste 0 -- -- 83
2020-03-13 03:00:00 7.9 4 Oeste 15 Oeste 0 -- -- 83
2020-03-13 02:00:00 8.2 8 Oeste 15 Oeste 0 -- -- 83
2020-03-13 01:00:00 8.8 4 Oeste 8 Oeste 0 -- -- 86
2020-03-13 00:00:00 9.1 2 Noroeste 10 Norte 0 -- -- 83
2020-03-12 23:00:00 8.9 7 Norte 12 Norte 0 -- -- 84
2020-03-12 22:00:00 10.1 6 Norte 14 Noroeste 0 -- -- 79
2020-03-12 21:00:00 11.7 5 Noroeste 16 Noroeste 0 -- -- 74
2020-03-12 20:00:00 13 11 Noroeste 18 Noroeste 0 -- -- 73
2020-03-12 19:00:00 14 7 Noroeste 23 Oeste 0 -- -- 67
2020-03-12 18:00:00 15.4 15 Noroeste 31 Oeste 0 -- -- 63
2020-03-12 17:00:00 17 21 Oeste 32 Oeste 0 -- -- 58
2020-03-12 16:00:00 19.4 10 Oeste 23 Oeste 0 -- -- 49
2020-03-12 15:00:00 18.2 14 Noroeste 22 Oeste 0 -- -- 51
2020-03-12 14:00:00 17.2 12 Oeste 21 Oeste 0 -- -- 59
2020-03-12 13:00:00 18.2 7 Sudoeste 19 Oeste 0 -- -- 50
2020-03-12 12:00:00 16.2 11 Oeste 19 Oeste 0 -- -- 64
2020-03-12 11:00:00 12.4 10 Oeste 15 Oeste 0 -- -- 77
2020-03-12 10:00:00 11.6 7 Oeste 11 Oeste 0 -- -- 79
2020-03-12 09:00:00 7.6 2 Sur 4 Sur 0 -- -- 83
2020-03-12 08:00:00 7.6 2 Noroeste 12 Noroeste 0 -- -- 83
2020-03-12 07:00:00 7 3 Norte 9 Norte 0 -- -- 87
2020-03-12 06:00:00 7.9 2 Nordeste 11 Norte 0 -- -- 79
2020-03-12 05:00:00 7.9 2 Este 8 Norte 0 -- -- 81
2020-03-12 04:00:00 8 6 Nordeste 10 Norte 0 -- -- 82
2020-03-12 03:00:00 9.1 9 Nordeste 14 Norte 0 -- -- 76
2020-03-12 02:00:00 7.9 10 Norte 14 Norte 0 -- -- 82
2020-03-12 01:00:00 8.6 6 Nordeste 17 Norte 0 -- -- 79
2020-03-12 00:00:00 9.6 14 Norte 16 Norte 0 -- -- 74
2020-03-11 23:00:00 12.5 13 Norte 27 Noroeste 0 -- -- 65
2020-03-11 22:00:00 15.2 20 Noroeste 28 Noroeste 0 -- -- 56
2020-03-11 21:00:00 14.8 15 Noroeste 22 Noroeste 0 -- -- 55
2020-03-11 20:00:00 13.1 4 Nordeste 12 Oeste 0 -- -- 65
2020-03-11 19:00:00 17.9 10 Noroeste 22 Oeste 0 -- -- 47
2020-03-11 18:00:00 20.3 17 Oeste 27 Noroeste 0 -- -- 39
2020-03-11 17:00:00 21 13 Oeste 25 Noroeste 0 -- -- 38
2020-03-11 16:00:00 20.2 9 Sur 18 Sur 0 -- -- 43
2020-03-11 15:00:00 19.3 8 Sur 19 Sur 0 -- -- 45
2020-03-11 14:00:00 18.2 10 Sur 18 Sur 0 -- -- 46
2020-03-11 13:00:00 17.2 5 Sur 13 Sur 0 -- -- 50
2020-03-11 12:00:00 15.3 6 Sur 16 Sur 0 -- -- 49
2020-03-11 11:00:00 13.5 5 Sur 12 Sudoeste 0 -- -- 64
2020-03-11 10:00:00 11.1 4 Sudoeste 8 Sur 0 -- -- 77
2020-03-11 09:00:00 7.1 3 Nordeste 9 Oeste 0 -- -- 85
2020-03-11 08:00:00 6.1 5 Sudoeste 20 Norte 0 -- -- 83
2020-03-11 07:00:00 7.7 12 Norte 22 Norte 0 -- -- 81
2020-03-11 06:00:00 7.5 13 Norte 19 Norte 0 -- -- 83
2020-03-11 05:00:00 7.8 11 Norte 21 Norte 0 -- -- 81
2020-03-11 04:00:00 6.9 16 Norte 21 Norte 0 -- -- 83
2020-03-11 03:00:00 7.4 7 Norte 12 Nordeste 0 -- -- 79
2020-03-11 02:00:00 6.6 9 Nordeste 12 Nordeste 0 -- -- 83
2020-03-11 01:00:00 8.2 4 Norte 13 Norte 0 -- -- 75
2020-03-11 00:00:00 6.6 3 Este 8 Norte 0 -- -- 82
2020-03-10 23:00:00 7.1 6 Norte 12 Norte 0 -- -- 70
2020-03-10 22:00:00 6.5 2 Sudeste 9 Nordeste 0 -- -- 74
2020-03-10 21:00:00 10.1 3 Norte 18 Norte 0 -- -- 60
2020-03-10 20:00:00 15 12 Noroeste 27 Noroeste 0 -- -- 33
2020-03-10 19:00:00 16.8 10 Oeste 30 Oeste 0 -- -- 30
2020-03-10 18:00:00 18.7 22 Noroeste 42 Noroeste 0 -- -- 23
2020-03-10 17:00:00 19.1 27 Noroeste 46 Oeste 0 -- -- 20
2020-03-10 16:00:00 18.8 28 Oeste 50 Oeste 0 -- -- 16
2020-03-10 15:00:00 18.5 28 Noroeste 44 Oeste 0 -- -- 16
2020-03-10 14:00:00 18 29 Noroeste 44 Noroeste 0 -- -- 16
2020-03-10 13:00:00 17.4 17 Noroeste 42 Oeste 0 -- -- 24
2020-03-10 12:00:00 15.5 15 Oeste 28 Oeste 0 -- -- 32
2020-03-10 11:00:00 13.2 13 Oeste 22 Oeste 0 -- -- 42
2020-03-10 10:00:00 11.1 11 Oeste 19 Noroeste 0 -- -- 52
2020-03-10 09:00:00 8.3 3 Norte 18 Norte 0 -- -- 54
2020-03-10 08:00:00 7.6 11 Norte 21 Norte 0 -- -- 57
2020-03-10 07:00:00 7.1 17 Norte 26 Norte 0 -- -- 68
2020-03-10 06:00:00 7.7 18 Norte 30 Norte 0 -- -- 63
2020-03-10 05:00:00 8 19 Norte 35 Noroeste 0 -- -- 63
2020-03-10 04:00:00 7.7 23 Norte 31 Norte 0 -- -- 65
2020-03-10 03:00:00 7.9 18 Norte 28 Oeste 0 -- -- 63
2020-03-10 02:00:00 7.4 16 Norte 29 Oeste 0 -- -- 65
2020-03-10 01:00:00 7 9 Norte 25 Norte 0 -- -- 71
2020-03-10 00:00:00 7.1 15 Norte 23 Norte 0 -- -- 70
2020-03-09 23:00:00 7.4 8 Noroeste 17 Noroeste 0 -- -- 69
2020-03-09 22:00:00 7.4 3 Noroeste 15 Norte 0 -- -- 66
2020-03-09 21:00:00 8.2 8 Norte 20 Norte 0 -- -- 63
2020-03-09 20:00:00 8.9 10 Norte 25 Noroeste 0 -- -- 65
2020-03-09 19:00:00 10.8 16 Noroeste 31 Noroeste 0 -- -- 55
2020-03-09 18:00:00 12.3 14 Noroeste 35 Noroeste 0 -- -- 49
2020-03-09 17:00:00 12.6 26 Oeste 45 Oeste 0 -- -- 47
2020-03-09 16:00:00 12.5 21 Noroeste 40 Noroeste 0 -- -- 48
2020-03-09 15:00:00 11.8 26 Oeste 43 Oeste 0 -- -- 51
2020-03-09 14:00:00 11.6 21 Noroeste 40 Noroeste 0 -- -- 54
2020-03-09 13:00:00 9 26 Noroeste 42 Noroeste 0 -- -- 65
2020-03-09 12:00:00 8.2 20 Noroeste 39 Noroeste 0 -- -- 69
2020-03-09 11:00:00 6.4 14 Noroeste 33 Oeste 0 -- -- 75
2020-03-09 10:00:00 4.4 16 Noroeste 31 Noroeste 0 -- -- 82
2020-03-09 09:00:00 2.9 2 Este 8 Sudeste 0 -- -- 88
2020-03-09 08:00:00 1.9 6 Norte 14 Nordeste 0 -- -- 90
2020-03-09 07:00:00 1.4 6 Noroeste 16 Noroeste 0 -- -- 92
2020-03-09 06:00:00 1.9 0 Calma 13 Norte 0 -- -- 90
2020-03-09 05:00:00 3.2 10 Norte 27 Noroeste 0 -- -- 89
2020-03-09 04:00:00 3.7 14 Norte 33 Noroeste 0 -- -- 86
2020-03-09 03:00:00 3.9 13 Noroeste 26 Noroeste 0 -- -- 79
2020-03-09 02:00:00 4.3 13 Noroeste 28 Noroeste 0 -- -- 78
2020-03-09 01:00:00 4.4 8 Norte 36 Noroeste 0 -- -- 81
2020-03-09 00:00:00 5.3 17 Noroeste 40 Noroeste 0 -- -- 79